Time;durP1;ratioP1;P1;durP2;ratioP2;P2;SDS_P1;SDS_P2;PMS_P1;PMS_P2;Temp;Humidity;BMP_temperature;BMP_pressure;BME280_temperature;BME280_humidity;BME280_pressure;Samples;Min_cycle;Max_cycle;Signal;HPM_P1;HPM_P2
2024/03/21 07:39:55;;;;;;;;;15.00;12.33;;;;;23.68;41.12;102471.81;4909507;28;45631;-81
2024/03/21 07:42:21;;;;;;;;;11.67;8.67;;;;;23.61;41.12;102464.44;4909917;28;45528;-81
2024/03/21 07:44:46;;;;;;;;;18.00;10.33;;;;;23.72;41.05;102484.66;4903293;28;46643;-81
2024/03/21 07:47:11;;;;;;;;;10.00;10.00;;;;;23.72;41.10;102489.97;4912926;28;45460;-82
2024/03/21 07:49:37;;;;;;;;;9.33;9.33;;;;;23.65;40.92;102477.44;4906636;28;45509;-79
2024/03/21 07:52:03;;;;;;;;;10.33;7.67;;;;;23.74;41.02;102497.78;4905552;28;45481;-82
2024/03/21 07:54:29;;;;;;;;;10.00;9.67;;;;;23.69;40.83;102484.09;4903499;28;45489;-80
2024/03/21 07:56:57;;;;;;;;;13.00;11.00;;;;;23.74;41.25;102501.28;4911203;28;45545;-81
2024/03/21 07:59:23;;;;;;;;;14.33;11.67;;;;;23.74;40.96;102505.75;4903224;28;46440;-81
2024/03/21 08:01:48;;;;;;;;;13.00;9.33;;;;;23.66;41.08;102490.56;4903031;28;45651;-81
2024/03/21 08:04:13;;;;;;;;;14.00;12.33;;;;;23.76;40.95;102498.47;4900672;28;45367;-80
2024/03/21 08:06:39;;;;;;;;;10.00;9.00;;;;;23.74;40.52;102493.31;4901564;28;45589;-79
2024/03/21 08:09:05;;;;;;;;;8.67;8.67;;;;;23.68;40.80;102488.59;4915725;28;46308;-80
2024/03/21 08:11:31;;;;;;;;;7.00;7.00;;;;;23.76;40.71;102502.97;4916025;28;45476;-81
2024/03/21 08:13:56;;;;;;;;;12.00;10.67;;;;;23.77;40.83;102508.13;4924288;28;45940;-80
2024/03/21 08:16:21;;;;;;;;;11.67;10.67;;;;;23.78;40.52;102512.44;4908410;28;45413;-81
2024/03/21 08:18:47;;;;;;;;;9.67;9.33;;;;;23.80;40.88;102514.94;4908651;28;47410;-81
2024/03/21 08:21:14;;;;;;;;;10.67;9.67;;;;;23.80;40.52;102512.28;4896202;28;45840;-81
2024/03/21 08:23:39;;;;;;;;;11.00;9.67;;;;;23.80;40.93;102515.78;4896722;28;45523;-81
2024/03/21 08:26:05;;;;;;;;;10.00;9.00;;;;;23.81;40.55;102512.13;4897315;28;45380;-81
2024/03/21 08:28:31;;;;;;;;;8.75;8.75;;;;;23.66;41.00;102482.59;4914488;28;45527;-81
2024/03/21 08:30:57;;;;;;;;;9.67;8.67;;;;;23.81;40.82;102513.97;4901912;28;45502;-81
2024/03/21 08:33:23;;;;;;;;;8.00;8.00;;;;;23.74;40.73;102492.47;4896421;28;45473;-81
2024/03/21 08:35:49;;;;;;;;;8.00;7.67;;;;;23.82;40.71;102507.66;4896340;28;45459;-81
2024/03/21 08:38:15;;;;;;;;;9.33;8.67;;;;;23.75;40.92;102510.09;4895964;28;46569;-81
2024/03/21 08:40:49;;;;;;;;;9.67;8.33;;;;;23.81;40.90;102508.66;4897573;28;45494;-81
2024/03/21 08:43:15;;;;;;;;;9.67;7.67;;;;;23.76;40.93;102495.78;4896228;28;45453;-81
2024/03/21 08:45:43;;;;;;;;;11.33;10.33;;;;;23.82;41.07;102508.50;4898079;28;46576;-82
2024/03/21 08:48:09;;;;;;;;;12.33;11.00;;;;;23.76;41.01;102506.44;4908673;28;45518;-81
2024/03/21 08:50:34;;;;;;;;;7.00;7.00;;;;;23.82;40.65;102526.25;4903798;28;45482;-81
2024/03/21 08:52:59;;;;;;;;;11.33;10.33;;;;;23.60;40.87;102493.84;4904896;28;45320;-81
2024/03/21 08:55:25;;;;;;;;;9.33;8.33;;;;;23.81;40.67;102520.09;4905702;28;45529;-81
2024/03/21 08:57:51;;;;;;;;;9.33;7.33;;;;;23.81;41.03;102521.94;4900886;28;45287;-81
2024/03/21 09:00:16;;;;;;;;;7.33;7.33;;;;;23.78;41.09;102524.91;4905723;28;45418;-81
2024/03/21 09:02:41;;;;;;;;;8.67;7.67;;;;;23.80;40.86;102536.22;4904086;28;45508;-82
2024/03/21 09:05:07;;;;;;;;;10.67;9.67;;;;;23.69;41.07;102524.81;4896621;28;45501;-82
2024/03/21 09:07:32;;;;;;;;;10.00;8.00;;;;;23.78;40.88;102538.19;4895418;28;46122;-82
2024/03/21 09:09:57;;;;;;;;;11.00;9.33;;;;;23.82;40.59;102542.19;4896034;28;46238;-82
2024/03/21 09:12:23;;;;;;;;;10.00;8.00;;;;;23.77;40.96;102537.34;4900374;28;45397;-82
2024/03/21 09:14:48;;;;;;;;;11.67;9.00;;;;;23.74;41.07;102530.50;4911832;28;45422;-81
2024/03/21 09:17:13;;;;;;;;;10.00;10.00;;;;;23.72;40.76;102529.84;4906367;28;46292;-82
2024/03/21 09:19:39;;;;;;;;;9.00;7.33;;;;;23.73;40.95;102533.31;4915029;28;45541;-82
2024/03/21 09:22:04;;;;;;;;;9.67;9.00;;;;;23.66;40.32;102532.25;4914989;28;45370;-82
2024/03/21 09:24:30;;;;;;;;;10.67;9.00;;;;;23.78;40.99;102547.00;4914740;28;46082;-81
2024/03/21 09:26:56;;;;;;;;;12.67;9.00;;;;;23.78;40.76;102554.13;4901455;28;47137;-82
2024/03/21 09:29:21;;;;;;;;;11.67;9.00;;;;;23.89;41.01;102569.03;4896900;28;45414;-82
2024/03/21 09:31:47;;;;;;;;;11.00;10.00;;;;;23.90;41.26;102570.69;4898018;28;45540;-81
2024/03/21 09:34:12;;;;;;;;;10.00;8.67;;;;;23.80;40.84;102568.09;4900247;28;46463;-81
2024/03/21 09:36:37;;;;;;;;;10.67;8.67;;;;;23.77;41.04;102557.75;4914806;28;47259;-80
2024/03/21 09:39:03;;;;;;;;;9.00;9.00;;;;;23.82;40.90;102552.84;4913651;28;45422;-81
2024/03/21 09:41:32;;;;;;;;;11.67;11.67;;;;;23.89;40.70;102564.53;4910126;28;45465;-81
2024/03/21 09:44:01;;;;;;;;;9.33;7.00;;;;;23.98;41.19;102568.13;4898036;28;45512;-81
2024/03/21 09:46:30;;;;;;;;;8.00;8.00;;;;;23.94;41.40;102564.91;4897373;28;47313;-81
2024/03/21 09:48:55;;;;;;;;;11.33;10.00;;;;;24.00;40.86;102571.44;4898913;28;45371;-81
2024/03/21 09:51:24;;;;;;;;;10.67;9.00;;;;;24.02;41.14;102573.97;4904831;28;45394;-81
2024/03/21 09:53:50;;;;;;;;;9.67;8.33;;;;;24.03;40.98;102571.16;4897577;28;45597;-82
2024/03/21 09:56:16;;;;;;;;;10.33;7.00;;;;;23.95;40.79;102560.44;4894898;28;46326;-81
2024/03/21 09:58:42;;;;;;;;;7.67;7.67;;;;;24.09;40.83;102569.72;4895825;28;45557;-81
2024/03/21 10:01:34;;;;;;;;;10.33;8.67;;;;;23.82;41.19;102520.94;4900299;28;45457;-80
2024/03/21 10:04:00;;;;;;;;;10.00;9.33;;;;;24.17;41.16;102575.09;4896271;28;45533;-82
2024/03/21 10:06:25;;;;;;;;;7.00;7.00;;;;;24.13;41.29;102557.78;4894936;28;46082;-81
2024/03/21 10:08:51;;;;;;;;;8.00;8.00;;;;;24.21;41.06;102566.81;4926432;28;45899;-81
2024/03/21 10:11:17;;;;;;;;;10.67;8.33;;;;;24.26;41.07;102570.72;4905914;28;45542;-82
2024/03/21 10:13:43;;;;;;;;;11.00;11.00;;;;;24.01;40.96;102517.31;4895347;28;45845;-81
2024/03/21 10:16:12;;;;;;;;;11.67;9.00;;;;;24.28;41.00;102552.78;4902518;28;45387;-81
2024/03/21 10:18:41;;;;;;;;;12.00;8.00;;;;;23.91;41.04;102493.47;4903427;28;45556;-81
2024/03/21 10:21:13;;;;;;;;;10.33;7.33;;;;;24.37;41.34;102566.97;4894219;28;45465;-79
2024/03/21 10:23:38;;;;;;;;;9.67;6.67;;;;;24.28;41.17;102551.94;4896438;28;45466;-81
2024/03/21 10:26:04;;;;;;;;;11.67;11.00;;;;;24.40;40.90;102564.03;4898964;28;46234;-82
2024/03/21 10:28:29;;;;;;;;;12.33;10.33;;;;;24.37;40.77;102558.16;4894641;28;45591;-82
2024/03/21 10:30:55;;;;;;;;;7.67;7.67;;;;;24.49;41.00;102569.38;4895329;28;45587;-80
2024/03/21 10:33:23;;;;;;;;;11.00;10.00;;;;;24.42;40.86;102555.88;4904055;28;45657;-81
2024/03/21 10:35:48;;;;;;;;;12.00;10.00;;;;;24.37;40.97;102542.19;4913236;28;46100;-81
2024/03/21 10:38:16;;;;;;;;;8.67;8.00;;;;;24.51;40.98;102562.91;4913356;28;45511;-81
2024/03/21 10:40:59;;;;;;;;;9.00;8.00;;;;;24.47;41.09;102544.75;4910152;28;45338;-81
2024/03/21 10:43:27;;;;;;;;;11.00;9.00;;;;;24.58;41.02;102549.84;4900509;28;45669;-80
2024/03/21 10:45:54;;;;;;;;;11.00;9.00;;;;;24.50;41.14;102547.97;4905992;28;46271;-81
2024/03/21 10:48:26;;;;;;;;;12.33;11.00;;;;;24.56;40.90;102551.81;4911534;28;45602;-81
2024/03/21 10:50:52;;;;;;;;;9.00;9.00;;;;;24.62;40.86;102560.97;4894735;28;45550;-78
2024/03/21 10:53:20;;;;;;;;;11.50;10.50;;;;;24.63;41.22;102557.34;4894262;28;45502;-81
2024/03/21 10:55:48;;;;;;;;;12.75;11.25;;;;;24.58;41.24;102549.84;4894402;28;47285;-82
2024/03/21 10:58:16;;;;;;;;;14.00;9.00;;;;;24.57;41.33;102545.50;4899384;28;45363;-82
2024/03/21 11:00:49;;;;;;;;;14.00;11.00;;;;;24.65;41.43;102557.19;4913894;28;45457;-82
2024/03/21 11:03:15;;;;;;;;;9.00;9.00;;;;;24.66;41.14;102559.69;4913130;28;45342;-81
2024/03/21 11:05:41;;;;;;;;;10.67;8.33;;;;;24.58;41.19;102543.69;4913646;28;45578;-81
2024/03/21 11:08:25;;;;;;;;;10.75;10.75;;;;;24.56;41.28;102535.84;4913867;28;45502;-81
2024/03/21 11:10:50;;;;;;;;;11.33;10.67;;;;;24.54;41.13;102531.69;4896626;28;45506;-82
2024/03/21 11:13:16;;;;;;;;;9.67;8.67;;;;;24.58;41.30;102533.88;4894803;28;45426;-81
2024/03/21 11:15:41;;;;;;;;;12.00;9.67;;;;;24.64;41.15;102545.72;4903347;28;47220;-81
2024/03/21 11:18:07;;;;;;;;;15.00;11.67;;;;;24.67;41.30;102547.25;4906320;28;45462;-81
2024/03/21 11:20:32;;;;;;;;;10.33;9.33;;;;;24.56;41.27;102535.84;4914252;28;45935;-81
2024/03/21 11:22:59;;;;;;;;;10.33;9.67;;;;;24.66;41.22;102545.56;4897739;28;45469;-82
2024/03/21 11:25:25;;;;;;;;;11.00;11.00;;;;;24.66;41.17;102542.88;4898026;28;46079;-81
2024/03/21 11:27:51;;;;;;;;;14.25;14.00;;;;;24.66;40.92;102546.41;4903137;28;45953;-79
2024/03/21 11:30:16;;;;;;;;;42.25;34.75;;;;;24.64;39.18;102556.38;4909431;28;45645;-79
2024/03/21 11:32:41;;;;;;;;;40.75;32.00;;;;;24.23;39.27;102503.66;4909977;28;45514;-79
2024/03/21 11:35:07;;;;;;;;;30.75;26.75;;;;;24.51;39.85;102557.59;4912010;28;45853;-76
2024/03/21 11:37:32;;;;;;;;;27.25;22.75;;;;;24.45;39.76;102555.56;4915641;28;45500;-76
2024/03/21 11:39:58;;;;;;;;;22.25;19.00;;;;;24.52;40.58;102571.72;4912849;28;45316;-76
2024/03/21 11:42:25;;;;;;;;;19.00;16.75;;;;;24.53;40.57;102570.75;4902245;28;45402;-76
2024/03/21 11:44:51;;;;;;;;;24.50;17.25;;;;;24.50;40.74;102563.06;4912596;28;47502;-78
2024/03/21 11:47:17;;;;;;;;;20.50;17.25;;;;;24.56;40.93;102564.28;4908566;28;45609;-79
2024/03/21 11:49:49;;;;;;;;;18.50;17.75;;;;;24.54;41.12;102564.44;4915007;28;45462;-77
2024/03/21 11:52:16;;;;;;;;;16.75;16.75;;;;;24.52;41.03;102559.28;4906774;28;45387;-80
2024/03/21 11:54:42;;;;;;;;;21.25;14.50;;;;;24.56;40.72;102565.13;4900591;28;46065;-78
2024/03/21 11:57:11;;;;;;;;;17.00;15.67;;;;;24.57;41.40;102561.47;4905114;28;45579;-77
2024/03/21 11:59:40;;;;;;;;;17.00;17.00;;;;;24.57;41.26;102553.47;4899692;28;45504;-75
2024/03/21 12:02:10;;;;;;;;;14.50;14.50;;;;;24.48;41.03;102539.31;4900502;28;45570;-77
2024/03/21 12:04:36;;;;;;;;;13.50;12.75;;;;;24.58;41.34;102547.19;4910002;28;47304;-74
2024/03/21 12:07:01;;;;;;;;;15.25;12.75;;;;;24.60;41.34;102547.00;4908656;28;45501;-79
2024/03/21 12:09:26;;;;;;;;;18.25;14.50;;;;;24.51;41.71;102525.66;4914333;28;45482;-78
2024/03/21 12:11:52;;;;;;;;;15.50;12.50;;;;;24.61;41.69;102535.38;4914955;28;45500;-80
2024/03/21 12:14:17;;;;;;;;;14.50;11.75;;;;;24.56;41.57;102530.53;4909490;28;46158;-79
2024/03/21 12:16:42;;;;;;;;;16.00;13.00;;;;;24.62;41.74;102539.69;4907245;28;45462;-77
2024/03/21 12:19:09;;;;;;;;;14.00;13.50;;;;;24.36;41.91;102512.09;4919660;28;45488;-76
2024/03/21 12:21:34;;;;;;;;;15.00;15.00;;;;;24.61;41.69;102552.19;4899306;28;45495;-77
2024/03/21 12:23:59;;;;;;;;;14.00;12.75;;;;;24.60;41.73;102549.66;4898179;28;46470;-78
2024/03/21 12:26:26;;;;;;;;;13.00;11.33;;;;;24.55;41.49;102538.66;4924676;28;45585;-77
2024/03/21 12:28:52;;;;;;;;;14.50;12.50;;;;;24.55;41.46;102544.81;4899808;28;45608;-78
2024/03/21 12:31:18;;;;;;;;;16.00;12.33;;;;;24.57;41.62;102540.16;4898731;28;46127;-78
2024/03/21 12:33:50;;;;;;;;;16.00;14.75;;;;;24.62;41.74;102540.53;4902640;28;46087;-76
2024/03/21 12:36:18;;;;;;;;;13.50;12.75;;;;;24.62;41.56;102545.84;4908299;28;45648;-79
2024/03/21 12:38:43;;;;;;;;;14.33;11.67;;;;;24.60;41.93;102539.88;4907930;28;45485;-76
2024/03/21 12:41:12;;;;;;;;;17.25;13.00;;;;;24.60;42.32;102534.53;4903150;28;45418;-76
2024/03/21 12:43:37;;;;;;;;;14.00;12.00;;;;;24.63;41.92;102538.72;4907208;28;46677;-77
2024/03/21 12:46:03;;;;;;;;;13.33;12.00;;;;;24.47;41.81;102516.34;4901655;28;45507;-79
2024/03/21 12:48:28;;;;;;;;;9.33;9.33;;;;;24.49;42.04;102510.84;4901857;28;45879;-78
2024/03/21 12:50:54;;;;;;;;;14.75;11.50;;;;;24.53;42.22;102517.53;4907901;28;45358;-78
2024/03/21 12:53:21;;;;;;;;;16.33;15.33;;;;;24.51;42.16;102511.53;4904006;28;46155;-78
2024/03/21 12:55:47;;;;;;;;;14.33;14.00;;;;;24.34;42.10;102492.81;4905933;28;45638;-79
2024/03/21 12:58:16;;;;;;;;;15.00;12.00;;;;;24.62;42.00;102526.38;4909456;28;45545;-78
2024/03/21 13:00:42;;;;;;;;;14.00;11.67;;;;;24.62;42.04;102532.56;4913438;28;46124;-79
2024/03/21 13:03:08;;;;;;;;;12.67;12.33;;;;;24.65;42.24;102533.22;4905584;28;46330;-78
2024/03/21 13:05:33;;;;;;;;;11.67;10.67;;;;;24.65;41.97;102538.56;4905049;28;45335;-78
2024/03/21 13:08:02;;;;;;;;;11.67;10.67;;;;;24.65;41.84;102531.41;4907500;28;45437;-75
2024/03/21 13:10:28;;;;;;;;;18.00;15.00;;;;;24.65;41.82;102530.56;4909683;28;45980;-76
2024/03/21 13:12:54;;;;;;;;;13.00;11.00;;;;;24.65;42.27;102527.91;4898864;28;47183;-78
2024/03/21 13:15:19;;;;;;;;;15.00;14.33;;;;;24.56;41.86;102511.06;4906551;28;45557;-78
2024/03/21 13:17:45;;;;;;;;;14.33;13.00;;;;;24.53;42.47;102512.22;4911220;28;45650;-77
2024/03/21 13:20:12;;;;;;;;;12.00;10.00;;;;;24.51;42.17;102509.69;4904793;28;46691;-78
2024/03/21 13:22:38;;;;;;;;;14.00;13.33;;;;;24.56;42.18;102522.56;4898785;28;45715;-78
2024/03/21 13:25:04;;;;;;;;;12.67;11.33;;;;;24.63;42.34;102526.25;4895709;28;45743;-79
2024/03/21 13:27:29;;;;;;;;;16.50;15.00;;;;;24.52;42.01;102510.53;4910467;28;45603;-77
2024/03/21 13:29:55;;;;;;;;;11.33;10.00;;;;;24.51;42.25;102499.06;4905449;28;45669;-78
2024/03/21 13:32:20;;;;;;;;;12.00;12.00;;;;;24.64;42.19;102519.09;4907814;28;46072;-79
2024/03/21 13:34:49;;;;;;;;;11.67;10.67;;;;;24.65;42.28;102511.94;4904455;28;45688;-78
2024/03/21 13:37:15;;;;;;;;;11.33;10.00;;;;;24.51;42.06;102495.59;4896575;28;45746;-78
2024/03/21 13:39:41;;;;;;;;;11.33;10.67;;;;;24.31;42.32;102457.69;4903507;28;46030;-79
2024/03/21 13:42:08;;;;;;;;;12.00;11.00;;;;;24.63;42.06;102504.13;4898984;28;45545;-79
2024/03/21 13:44:34;;;;;;;;;10.33;10.33;;;;;24.63;42.23;102504.13;4906226;28;45363;-78
2024/03/21 13:46:59;;;;;;;;;12.25;11.25;;;;;24.52;42.32;102492.75;4900883;28;45396;-78
2024/03/21 13:49:24;;;;;;;;;13.00;11.33;;;;;24.58;42.69;102501.94;4905195;28;45639;-78
2024/03/21 13:51:50;;;;;;;;;14.00;11.00;;;;;24.62;42.09;102507.75;4903972;28;47004;-79
2024/03/21 13:54:16;;;;;;;;;13.33;11.00;;;;;24.54;42.24;102495.25;4908832;28;45549;-78
2024/03/21 13:56:42;;;;;;;;;13.67;11.00;;;;;24.59;42.24;102500.94;4905874;28;45486;-78
2024/03/21 13:59:07;;;;;;;;;14.67;13.00;;;;;24.52;42.56;102476.78;4900850;28;45572;-78
2024/03/21 14:01:32;;;;;;;;;13.00;13.00;;;;;24.60;42.37;102491.97;4896019;28;45862;-79
2024/03/21 14:03:58;;;;;;;;;12.33;12.33;;;;;24.60;42.28;102489.31;4903534;28;45561;-79
2024/03/21 14:06:23;;;;;;;;;13.00;12.00;;;;;24.49;42.13;102473.59;4904608;28;45770;-80
2024/03/21 14:08:50;;;;;;;;;13.00;11.00;;;;;24.60;42.24;102485.81;4907524;28;45600;-79
2024/03/21 14:11:15;;;;;;;;;11.33;10.33;;;;;24.54;42.63;102465.16;4897582;28;46226;-79
2024/03/21 14:13:46;;;;;;;;;14.00;12.33;;;;;24.58;42.28;102475.34;4905909;28;45648;-78
2024/03/21 14:16:13;;;;;;;;;11.67;10.33;;;;;24.49;42.41;102465.63;4917234;28;46379;-79
2024/03/21 14:18:38;;;;;;;;;12.00;12.00;;;;;24.49;42.15;102458.47;4901894;28;45581;-79
2024/03/21 14:21:04;;;;;;;;;10.00;10.00;;;;;24.42;42.25;102445.97;4895018;28;45531;-79
2024/03/21 14:23:31;;;;;;;;;10.67;10.67;;;;;24.56;42.38;102466.69;4898134;28;45540;-79
2024/03/21 14:25:56;;;;;;;;;14.67;10.67;;;;;24.40;42.35;102440.81;4904460;28;45587;-78
2024/03/21 14:28:21;;;;;;;;;11.75;10.50;;;;;24.52;42.44;102455.50;4903134;28;46392;-78
2024/03/21 14:30:48;;;;;;;;;13.00;12.00;;;;;24.49;42.46;102441.66;4900194;28;45903;-79
2024/03/21 14:33:14;;;;;;;;;14.33;11.67;;;;;24.58;42.55;102458.53;4900286;28;45405;-79
2024/03/21 14:35:39;;;;;;;;;9.67;9.67;;;;;24.57;42.26;102449.69;4898729;28;45474;-79
2024/03/21 14:38:04;;;;;;;;;11.00;11.00;;;;;24.45;42.42;102437.66;4905298;28;45339;-79
2024/03/21 14:40:30;;;;;;;;;13.00;13.00;;;;;24.56;42.35;102450.72;4903368;28;46968;-80
2024/03/21 14:42:55;;;;;;;;;11.67;10.33;;;;;24.56;42.48;102448.06;4910237;28;46256;-79
2024/03/21 14:45:21;;;;;;;;;13.00;11.75;;;;;24.55;42.55;102443.72;4896762;28;45478;-79
2024/03/21 14:47:46;;;;;;;;;11.00;10.00;;;;;24.51;42.56;102437.06;4900089;28;45619;-79
2024/03/21 14:50:13;;;;;;;;;8.67;7.33;;;;;24.52;42.57;102441.34;4908325;28;48052;-79
2024/03/21 14:52:38;;;;;;;;;11.00;11.00;;;;;24.38;42.10;102425.00;4909714;28;46549;-79
2024/03/21 14:55:05;;;;;;;;;13.00;12.67;;;;;24.55;42.50;102442.88;4909729;28;45438;-79
2024/03/21 14:57:31;;;;;;;;;11.00;10.00;;;;;24.38;42.46;102414.34;4900640;28;45956;-80
2024/03/21 14:59:56;;;;;;;;;16.33;11.67;;;;;24.48;42.79;102434.69;4912425;28;46016;-81
2024/03/21 15:02:21;;;;;;;;;10.33;10.00;;;;;24.45;42.38;102429.69;4906552;28;45489;-80
2024/03/21 15:04:47;;;;;;;;;11.33;10.67;;;;;24.45;42.34;102427.03;4896264;28;45576;-80
2024/03/21 15:07:12;;;;;;;;;10.00;10.00;;;;;24.42;42.15;102417.53;4902034;28;45609;-81
2024/03/21 15:09:40;;;;;;;;;11.00;10.00;;;;;24.51;42.64;102437.84;4908141;28;46223;-81
2024/03/21 15:12:10;;;;;;;;;10.00;10.00;;;;;24.51;42.38;102429.06;4900519;28;45737;-79
2024/03/21 15:14:36;;;;;;;;;10.67;10.33;;;;;24.51;42.41;102431.72;4896895;28;45422;-79
2024/03/21 15:17:01;;;;;;;;;11.67;11.67;;;;;24.25;42.64;102384.69;4906980;28;45429;-79
2024/03/21 15:19:27;;;;;;;;;9.00;8.33;;;;;24.48;42.55;102413.41;4913247;28;47144;-79
2024/03/21 15:21:53;;;;;;;;;12.67;10.67;;;;;24.19;42.70;102375.50;4907454;28;45955;-79
2024/03/21 15:24:18;;;;;;;;;11.00;11.00;;;;;24.38;42.68;102403.72;4903195;28;45458;-79
2024/03/21 15:26:44;;;;;;;;;10.00;9.00;;;;;24.26;42.64;102381.00;4905421;28;45283;-79
2024/03/21 15:29:09;;;;;;;;;13.33;13.00;;;;;24.44;42.39;102410.22;4895317;28;46550;-79
2024/03/21 15:31:35;;;;;;;;;10.00;10.00;;;;;24.33;42.55;102387.38;4908134;28;45467;-79
2024/03/21 15:34:00;;;;;;;;;12.33;10.33;;;;;24.38;42.67;102385.09;4899003;28;45449;-79
2024/03/21 15:36:25;;;;;;;;;11.33;10.33;;;;;24.49;42.61;102399.09;4912858;28;45337;-79
2024/03/21 15:38:52;;;;;;;;;11.00;10.67;;;;;24.38;42.64;102376.28;4910035;28;45974;-84
2024/03/21 15:41:17;;;;;;;;;12.67;12.33;;;;;24.40;42.69;102380.47;4915514;28;45307;-80
2024/03/21 15:43:43;;;;;;;;;13.00;11.00;;;;;24.48;42.64;102384.16;4915064;28;45542;-91
2024/03/21 15:46:11;;;;;;;;;14.25;14.25;;;;;24.46;42.67;102383.47;4917222;28;45478;-91
2024/03/21 15:48:37;;;;;;;;;10.00;10.00;;;;;24.37;42.64;102370.13;4918994;28;46634;-91
2024/03/21 15:51:02;;;;;;;;;11.33;9.67;;;;;24.40;42.90;102371.66;4910236;28;45564;-91
2024/03/21 15:53:28;;;;;;;;;8.67;8.00;;;;;24.48;42.69;102386.81;4916905;28;45355;-90
2024/03/21 15:55:53;;;;;;;;;10.67;10.00;;;;;24.37;42.86;102366.63;4908600;28;45316;-92
2024/03/21 15:58:18;;;;;;;;;12.00;10.67;;;;;24.14;42.78;102325.44;4919488;28;46548;-91
2024/03/21 16:00:44;;;;;;;;;10.33;9.33;;;;;24.21;42.89;102338.94;4919432;28;45474;-91
2024/03/21 16:03:10;;;;;;;;;13.00;10.67;;;;;24.29;43.01;102356.78;4920521;28;45302;-92
2024/03/21 16:05:45;;;;;;;;;11.67;11.00;;;;;24.46;42.54;102381.63;4921803;28;45709;-91
2024/03/21 16:08:11;;;;;;;;;11.33;10.67;;;;;24.40;43.01;102369.81;4922108;28;47145;-92
2024/03/21 16:10:36;;;;;;;;;11.33;10.00;;;;;24.46;42.84;102384.28;4922725;28;45454;-90
2024/03/21 16:13:01;;;;;;;;;11.67;9.33;;;;;24.45;42.84;102379.97;4924685;28;45271;-92
2024/03/21 16:15:28;;;;;;;;;16.67;11.67;;;;;24.32;42.70;102364.47;4923686;28;45243;-92
2024/03/21 16:17:55;;;;;;;;;14.25;12.25;;;;;24.27;43.23;102359.63;4922202;28;46557;-92
2024/03/21 16:20:21;;;;;;;;;11.33;10.00;;;;;24.39;42.66;102364.66;4928626;28;46160;-91
2024/03/21 16:22:46;;;;;;;;;9.00;8.67;;;;;24.17;42.72;102343.72;4922600;28;45667;-91
2024/03/21 16:25:12;;;;;;;;;11.00;10.00;;;;;24.45;42.93;102385.31;4924283;28;45383;-92
2024/03/21 16:27:37;;;;;;;;;9.00;8.00;;;;;24.44;42.75;102391.59;4923974;28;47285;-92
2024/03/21 16:30:03;;;;;;;;;13.67;10.00;;;;;24.43;42.94;102389.94;4923443;28;51623;-92
2024/03/21 16:32:28;;;;;;;;;10.00;9.00;;;;;24.44;42.92;102399.59;4920883;28;45238;-92
2024/03/21 16:34:55;;;;;;;;;9.00;8.00;;;;;24.43;42.85;102395.28;4924116;28;45280;-92
2024/03/21 16:37:21;;;;;;;;;11.00;10.00;;;;;24.44;42.90;102398.75;4920841;28;45331;-80
2024/03/21 16:39:46;;;;;;;;;10.00;8.33;;;;;24.33;42.73;102382.06;4920259;28;45387;-78
2024/03/21 16:42:11;;;;;;;;;10.00;8.00;;;;;24.25;42.82;102366.88;4924870;28;45410;-83
2024/03/21 16:44:37;;;;;;;;;12.33;10.67;;;;;24.40;43.06;102396.44;4910909;28;45429;-82
2024/03/21 16:47:02;;;;;;;;;10.33;10.33;;;;;24.39;43.15;102388.59;4917133;28;45267;-83
2024/03/21 16:49:28;;;;;;;;;10.33;10.33;;;;;24.40;43.02;102385.78;4919948;28;45235;-83
2024/03/21 16:51:53;;;;;;;;;8.33;8.33;;;;;24.37;42.94;102382.59;4920253;28;45431;-83
2024/03/21 16:54:18;;;;;;;;;11.67;9.67;;;;;24.40;43.16;102392.94;4919886;28;45473;-83
2024/03/21 16:56:44;;;;;;;;;14.00;10.00;;;;;24.25;43.10;102369.53;4911896;28;45488;-83
2024/03/21 16:59:09;;;;;;;;;11.00;11.00;;;;;24.26;43.02;102373.91;4916534;28;45480;-83
2024/03/21 17:01:34;;;;;;;;;10.00;9.67;;;;;24.38;43.02;102401.03;4907876;28;45338;-84
2024/03/21 17:04:02;;;;;;;;;12.33;11.00;;;;;24.38;43.24;102398.38;4909492;28;45535;-83
2024/03/21 17:06:27;;;;;;;;;14.33;11.00;;;;;24.37;43.19;102399.41;4906532;28;46259;-84
2024/03/21 17:08:53;;;;;;;;;11.00;10.00;;;;;24.29;43.21;102391.38;4926527;28;45405;-83
2024/03/21 17:11:18;;;;;;;;;13.00;11.00;;;;;24.28;43.15;102384.38;4913747;28;45460;-83
2024/03/21 17:13:43;;;;;;;;;13.50;10.50;;;;;24.36;43.04;102402.19;4916833;28;45613;-83
2024/03/21 17:16:09;;;;;;;;;11.67;10.00;;;;;24.36;43.10;102403.03;4919567;28;47014;-83
2024/03/21 17:18:34;;;;;;;;;10.00;9.00;;;;;24.35;43.07;102403.22;4906052;28;45284;-83
2024/03/21 17:20:59;;;;;;;;;9.33;9.00;;;;;24.27;43.04;102391.53;4912449;28;45398;-83
2024/03/21 17:23:27;;;;;;;;;11.33;10.67;;;;;24.35;43.08;102401.38;4916417;28;45408;-83
2024/03/21 17:25:52;;;;;;;;;12.25;11.50;;;;;24.34;43.14;102396.22;4912868;28;45649;-85
2024/03/21 17:28:17;;;;;;;;;12.67;9.67;;;;;24.34;43.15;102393.53;4917555;28;45502;-85
2024/03/21 17:30:43;;;;;;;;;9.00;9.00;;;;;24.23;43.21;102378.66;4915463;28;45586;-85
2024/03/21 17:33:09;;;;;;;;;9.00;9.00;;;;;24.17;43.03;102372.97;4919133;28;45473;-85
2024/03/21 17:35:35;;;;;;;;;11.33;9.67;;;;;24.32;43.38;102399.03;4913911;28;45573;-85
2024/03/21 17:38:00;;;;;;;;;8.67;8.67;;;;;24.32;43.17;102399.03;4917433;28;45386;-85
2024/03/21 17:40:26;;;;;;;;;10.00;9.67;;;;;24.29;43.09;102391.38;4915572;28;45358;-84
2024/03/21 17:42:51;;;;;;;;;13.00;10.00;;;;;24.15;43.03;102371.47;4911340;28;45454;-85
2024/03/21 17:45:18;;;;;;;;;6.67;6.67;;;;;24.27;43.02;102388.88;4916441;28;46517;-84
2024/03/21 17:47:43;;;;;;;;;10.67;9.00;;;;;24.20;43.14;102386.97;4918421;28;45366;-85
2024/03/21 17:50:09;;;;;;;;;9.00;9.00;;;;;24.21;43.12;102393.94;4905881;28;46687;-86
2024/03/21 17:52:35;;;;;;;;;10.67;10.33;;;;;24.20;43.36;102392.28;4913091;28;45448;-85
2024/03/21 17:55:00;;;;;;;;;10.33;8.67;;;;;24.21;42.83;102389.47;4903303;28;45432;-85
2024/03/21 17:57:25;;;;;;;;;10.67;9.33;;;;;24.20;43.41;102389.63;4915086;28;46496;-85
2024/03/21 17:59:51;;;;;;;;;11.00;10.67;;;;;24.22;43.42;102390.31;4916638;28;45497;-86
2024/03/21 18:02:17;;;;;;;;;12.67;10.33;;;;;24.26;43.02;102405.81;4905454;28;45557;-85
2024/03/21 18:04:42;;;;;;;;;7.33;7.33;;;;;24.23;43.20;102391.94;4906402;28;45351;-85
2024/03/21 18:07:07;;;;;;;;;9.00;9.00;;;;;24.26;43.05;102404.94;4902123;28;45510;-84
2024/03/21 18:09:33;;;;;;;;;11.00;10.00;;;;;24.11;43.56;102383.41;4908148;28;46023;-85
2024/03/21 18:11:58;;;;;;;;;9.00;9.00;;;;;24.25;43.26;102401.44;4915946;28;48934;-85
2024/03/21 18:14:24;;;;;;;;;12.33;10.33;;;;;24.12;43.21;102383.28;4907162;28;45441;-85
2024/03/21 18:16:49;;;;;;;;;9.33;8.67;;;;;24.19;43.31;102399.44;4902278;28;45268;-84
2024/03/21 18:19:15;;;;;;;;;11.00;8.67;;;;;24.22;43.25;102401.78;4907626;28;45386;-85
2024/03/21 18:21:41;;;;;;;;;10.67;10.00;;;;;24.20;43.30;102402.94;4904232;28;45490;-84
2024/03/21 18:24:07;;;;;;;;;9.00;8.67;;;;;24.22;43.34;102409.75;4903245;28;45512;-84
2024/03/21 18:26:32;;;;;;;;;9.00;9.00;;;;;24.14;43.21;102396.41;4905358;28;45362;-84
2024/03/21 18:28:58;;;;;;;;;8.00;8.00;;;;;24.08;43.10;102389.88;4910131;28;45651;-85
2024/03/21 18:31:23;;;;;;;;;10.67;10.67;;;;;24.14;43.08;102396.41;4917389;28;45412;-85
2024/03/21 18:33:49;;;;;;;;;9.67;8.67;;;;;24.11;43.36;102396.72;4906520;28;45964;-85
2024/03/21 18:36:14;;;;;;;;;8.75;8.75;;;;;24.02;43.32;102377.25;4914223;28;45370;-85
2024/03/21 18:38:40;;;;;;;;;9.00;9.00;;;;;24.19;43.32;102404.75;4908985;28;45282;-84
2024/03/21 18:41:06;;;;;;;;;10.33;10.33;;;;;24.20;43.34;102410.91;4912261;28;45528;-84
2024/03/21 18:43:34;;;;;;;;;9.00;9.00;;;;;24.11;43.17;102399.38;4913831;28;46348;-84
2024/03/21 18:46:00;;;;;;;;;7.67;7.00;;;;;24.06;43.44;102399.84;4909839;28;45485;-85
2024/03/21 18:48:25;;;;;;;;;9.00;9.00;;;;;24.06;43.59;102416.63;4910713;28;45554;-84